sensor_id;sensor_type;location;lat;lon;timestamp;temperature;humidity
38209;DHT22;24016;52.102;11.584;2023-04-06T00:00:18;-0.90;99.90
38209;DHT22;24016;52.102;11.584;2023-04-06T00:02:44;-1.00;99.90
38209;DHT22;24016;52.102;11.584;2023-04-06T00:05:09;-0.90;99.90
38209;DHT22;24016;52.102;11.584;2023-04-06T00:07:36;-1.00;99.90
38209;DHT22;24016;52.102;11.584;2023-04-06T00:10:02;-1.10;99.90
38209;DHT22;24016;52.102;11.584;2023-04-06T00:12:28;-1.10;99.90
38209;DHT22;24016;52.102;11.584;2023-04-06T00:14:54;-1.10;99.90
38209;DHT22;24016;52.102;11.584;2023-04-06T00:17:19;-1.20;99.90
38209;DHT22;24016;52.102;11.584;2023-04-06T00:19:45;-1.20;99.90
38209;DHT22;24016;52.102;11.584;2023-04-06T00:22:10;-1.30;99.90
38209;DHT22;24016;52.102;11.584;2023-04-06T00:24:36;-1.30;99.90
38209;DHT22;24016;52.102;11.584;2023-04-06T00:27:01;-1.40;99.90
38209;DHT22;24016;52.102;11.584;2023-04-06T00:29:27;-1.40;99.90
38209;DHT22;24016;52.102;11.584;2023-04-06T00:31:52;-1.40;99.90
38209;DHT22;24016;52.102;11.584;2023-04-06T00:34:18;-1.50;99.90
38209;DHT22;24016;52.102;11.584;2023-04-06T00:36:43;-1.50;99.90
38209;DHT22;24016;52.102;11.584;2023-04-06T00:39:10;-1.40;99.90
38209;DHT22;24016;52.102;11.584;2023-04-06T00:41:35;-1.30;99.90
38209;DHT22;24016;52.102;11.584;2023-04-06T00:44:01;-1.30;99.90
38209;DHT22;24016;52.102;11.584;2023-04-06T00:46:26;-1.30;99.90
38209;DHT22;24016;52.102;11.584;2023-04-06T00:48:52;-1.20;99.90
38209;DHT22;24016;52.102;11.584;2023-04-06T00:51:17;-1.20;99.90
38209;DHT22;24016;52.102;11.584;2023-04-06T00:53:43;-1.20;99.90
38209;DHT22;24016;52.102;11.584;2023-04-06T00:56:09;-1.10;99.90
38209;DHT22;24016;52.102;11.584;2023-04-06T00:58:35;-1.10;99.90
38209;DHT22;24016;52.102;11.584;2023-04-06T01:01:04;-1.10;99.90
38209;DHT22;24016;52.102;11.584;2023-04-06T01:03:30;-1.10;99.90
38209;DHT22;24016;52.102;11.584;2023-04-06T01:05:55;-1.10;99.90
38209;DHT22;24016;52.102;11.584;2023-04-06T01:08:24;-1.10;99.90
38209;DHT22;24016;52.102;11.584;2023-04-06T01:10:49;-1.10;99.90
38209;DHT22;24016;52.102;11.584;2023-04-06T01:13:15;-1.20;99.90
38209;DHT22;24016;52.102;11.584;2023-04-06T01:15:42;-1.30;99.90
38209;DHT22;24016;52.102;11.584;2023-04-06T01:18:10;-1.30;99.90
38209;DHT22;24016;52.102;11.584;2023-04-06T01:20:36;-1.40;99.90
38209;DHT22;24016;52.102;11.584;2023-04-06T01:23:02;-1.60;99.90
38209;DHT22;24016;52.102;11.584;2023-04-06T01:25:27;-1.60;99.90
38209;DHT22;24016;52.102;11.584;2023-04-06T01:27:53;-1.70;99.90
38209;DHT22;24016;52.102;11.584;2023-04-06T01:30:19;-1.60;99.90
38209;DHT22;24016;52.102;11.584;2023-04-06T01:32:44;-1.60;99.90
38209;DHT22;24016;52.102;11.584;2023-04-06T01:35:10;-1.60;99.90
38209;DHT22;24016;52.102;11.584;2023-04-06T01:37:36;-1.60;99.90
38209;DHT22;24016;52.102;11.584;2023-04-06T01:40:02;-1.60;99.90
38209;DHT22;24016;52.102;11.584;2023-04-06T01:42:28;-1.80;99.90
38209;DHT22;24016;52.102;11.584;2023-04-06T01:44:53;-1.90;99.90
38209;DHT22;24016;52.102;11.584;2023-04-06T01:47:19;-1.90;99.90
38209;DHT22;24016;52.102;11.584;2023-04-06T01:49:44;-2.00;99.90
38209;DHT22;24016;52.102;11.584;2023-04-06T01:52:10;-2.00;99.90
38209;DHT22;24016;52.102;11.584;2023-04-06T01:54:35;-2.00;99.90
38209;DHT22;24016;52.102;11.584;2023-04-06T01:57:01;-1.90;99.90
38209;DHT22;24016;52.102;11.584;2023-04-06T01:59:26;-2.00;99.90
38209;DHT22;24016;52.102;11.584;2023-04-06T02:01:52;-2.00;99.90
38209;DHT22;24016;52.102;11.584;2023-04-06T02:04:17;-2.10;99.90
38209;DHT22;24016;52.102;11.584;2023-04-06T02:06:43;-2.10;99.90
38209;DHT22;24016;52.102;11.584;2023-04-06T02:09:08;-2.10;99.90
38209;DHT22;24016;52.102;11.584;2023-04-06T02:11:34;-2.10;99.90
38209;DHT22;24016;52.102;11.584;2023-04-06T02:14:00;-2.10;99.90
38209;DHT22;24016;52.102;11.584;2023-04-06T02:16:26;-2.10;99.90
38209;DHT22;24016;52.102;11.584;2023-04-06T02:18:51;-2.10;99.90
38209;DHT22;24016;52.102;11.584;2023-04-06T02:21:17;-2.00;99.90
38209;DHT22;24016;52.102;11.584;2023-04-06T02:23:45;-2.00;99.90
38209;DHT22;24016;52.102;11.584;2023-04-06T02:26:11;-2.00;99.90
38209;DHT22;24016;52.102;11.584;2023-04-06T02:28:36;-2.00;99.90
38209;DHT22;24016;52.102;11.584;2023-04-06T02:31:02;-2.10;99.90
38209;DHT22;24016;52.102;11.584;2023-04-06T02:33:27;-1.90;99.90
38209;DHT22;24016;52.102;11.584;2023-04-06T02:35:53;-2.00;99.90
38209;DHT22;24016;52.102;11.584;2023-04-06T02:38:18;-2.00;99.90
38209;DHT22;24016;52.102;11.584;2023-04-06T02:40:44;-2.10;99.90
38209;DHT22;24016;52.102;11.584;2023-04-06T02:43:10;-2.20;99.90
38209;DHT22;24016;52.102;11.584;2023-04-06T02:45:35;-2.20;99.90
38209;DHT22;24016;52.102;11.584;2023-04-06T02:48:01;-2.30;99.90
38209;DHT22;24016;52.102;11.584;2023-04-06T02:50:26;-2.30;99.90
38209;DHT22;24016;52.102;11.584;2023-04-06T02:52:52;-2.30;99.90
38209;DHT22;24016;52.102;11.584;2023-04-06T02:55:18;-2.40;99.90
38209;DHT22;24016;52.102;11.584;2023-04-06T02:57:45;-2.40;99.90
38209;DHT22;24016;52.102;11.584;2023-04-06T03:00:11;-2.40;99.90
38209;DHT22;24016;52.102;11.584;2023-04-06T03:02:37;-2.40;99.90
38209;DHT22;24016;52.102;11.584;2023-04-06T03:05:02;-2.40;99.90
38209;DHT22;24016;52.102;11.584;2023-04-06T03:07:28;-2.40;99.90
38209;DHT22;24016;52.102;11.584;2023-04-06T03:09:54;-2.40;99.90
38209;DHT22;24016;52.102;11.584;2023-04-06T03:12:20;-2.40;99.90
38209;DHT22;24016;52.102;11.584;2023-04-06T03:14:45;-2.50;99.90
38209;DHT22;24016;52.102;11.584;2023-04-06T03:17:11;-2.50;99.90
38209;DHT22;24016;52.102;11.584;2023-04-06T03:19:36;-2.50;99.90
38209;DHT22;24016;52.102;11.584;2023-04-06T03:22:02;-2.50;99.90
38209;DHT22;24016;52.102;11.584;2023-04-06T03:24:27;-2.50;99.90
38209;DHT22;24016;52.102;11.584;2023-04-06T03:26:53;-2.40;99.90
38209;DHT22;24016;52.102;11.584;2023-04-06T03:29:18;-2.30;99.90
38209;DHT22;24016;52.102;11.584;2023-04-06T03:31:44;-2.30;99.90
38209;DHT22;24016;52.102;11.584;2023-04-06T03:34:10;-2.30;99.90
38209;DHT22;24016;52.102;11.584;2023-04-06T03:36:36;-2.20;99.90
38209;DHT22;24016;52.102;11.584;2023-04-06T03:39:01;-2.20;99.90
38209;DHT22;24016;52.102;11.584;2023-04-06T03:41:27;-2.20;99.90
38209;DHT22;24016;52.102;11.584;2023-04-06T03:43:52;-2.20;99.90
38209;DHT22;24016;52.102;11.584;2023-04-06T03:46:18;-2.30;99.90
38209;DHT22;24016;52.102;11.584;2023-04-06T03:48:44;-2.30;99.90
38209;DHT22;24016;52.102;11.584;2023-04-06T03:51:10;-2.40;99.90
38209;DHT22;24016;52.102;11.584;2023-04-06T03:53:35;-2.50;99.90
38209;DHT22;24016;52.102;11.584;2023-04-06T03:56:02;-2.50;99.90
38209;DHT22;24016;52.102;11.584;2023-04-06T03:58:28;-2.60;99.90
38209;DHT22;24016;52.102;11.584;2023-04-06T04:00:53;-2.60;99.90
38209;DHT22;24016;52.102;11.584;2023-04-06T04:03:19;-2.70;99.90
38209;DHT22;24016;52.102;11.584;2023-04-06T04:05:44;-2.70;99.90
38209;DHT22;24016;52.102;11.584;2023-04-06T04:08:10;-2.60;99.90
38209;DHT22;24016;52.102;11.584;2023-04-06T04:10:35;-2.60;99.90
38209;DHT22;24016;52.102;11.584;2023-04-06T04:13:01;-2.70;99.90
38209;DHT22;24016;52.102;11.584;2023-04-06T04:15:26;-2.70;99.90
38209;DHT22;24016;52.102;11.584;2023-04-06T04:17:52;-2.80;99.90
38209;DHT22;24016;52.102;11.584;2023-04-06T04:20:17;-2.80;99.90
38209;DHT22;24016;52.102;11.584;2023-04-06T04:22:43;-2.80;99.90
38209;DHT22;24016;52.102;11.584;2023-04-06T04:25:09;-2.80;99.90
38209;DHT22;24016;52.102;11.584;2023-04-06T04:27:35;-2.70;99.90
38209;DHT22;24016;52.102;11.584;2023-04-06T04:30:00;-2.60;99.90
38209;DHT22;24016;52.102;11.584;2023-04-06T04:32:26;-2.60;99.90
38209;DHT22;24016;52.102;11.584;2023-04-06T04:34:53;-2.60;99.90
38209;DHT22;24016;52.102;11.584;2023-04-06T04:37:18;-2.60;99.90
38209;DHT22;24016;52.102;11.584;2023-04-06T04:39:45;-2.50;99.90
38209;DHT22;24016;52.102;11.584;2023-04-06T04:42:10;-2.40;99.90
38209;DHT22;24016;52.102;11.584;2023-04-06T04:44:36;-2.40;99.90
38209;DHT22;24016;52.102;11.584;2023-04-06T04:47:02;-2.40;99.90
38209;DHT22;24016;52.102;11.584;2023-04-06T04:49:27;-2.40;99.90
38209;DHT22;24016;52.102;11.584;2023-04-06T04:51:53;-2.30;99.90
38209;DHT22;24016;52.102;11.584;2023-04-06T04:54:18;-2.30;99.90
38209;DHT22;24016;52.102;11.584;2023-04-06T04:56:44;-2.40;99.90
38209;DHT22;24016;52.102;11.584;2023-04-06T04:59:10;-2.40;99.90
38209;DHT22;24016;52.102;11.584;2023-04-06T05:01:36;-2.40;99.90
38209;DHT22;24016;52.102;11.584;2023-04-06T05:04:01;-2.50;99.90
38209;DHT22;24016;52.102;11.584;2023-04-06T05:06:27;-2.50;99.90
38209;DHT22;24016;52.102;11.584;2023-04-06T05:08:52;-2.40;99.90
38209;DHT22;24016;52.102;11.584;2023-04-06T05:11:18;-2.40;99.90
38209;DHT22;24016;52.102;11.584;2023-04-06T05:13:43;-2.40;99.90
38209;DHT22;24016;52.102;11.584;2023-04-06T05:16:09;-2.30;99.90
38209;DHT22;24016;52.102;11.584;2023-04-06T05:18:35;-2.30;99.90
38209;DHT22;24016;52.102;11.584;2023-04-06T05:21:00;-2.20;99.90
38209;DHT22;24016;52.102;11.584;2023-04-06T05:23:26;-2.10;99.90
38209;DHT22;24016;52.102;11.584;2023-04-06T05:25:52;-2.00;99.90
38209;DHT22;24016;52.102;11.584;2023-04-06T05:28:17;-1.90;99.90
38209;DHT22;24016;52.102;11.584;2023-04-06T05:30:44;-1.80;99.90
38209;DHT22;24016;52.102;11.584;2023-04-06T05:33:11;-1.80;99.90
38209;DHT22;24016;52.102;11.584;2023-04-06T05:35:37;-1.60;99.90
38209;DHT22;24016;52.102;11.584;2023-04-06T05:38:02;-1.50;99.90
38209;DHT22;24016;52.102;11.584;2023-04-06T05:40:28;-1.40;99.90
38209;DHT22;24016;52.102;11.584;2023-04-06T05:42:53;-1.20;99.90
38209;DHT22;24016;52.102;11.584;2023-04-06T05:45:19;-1.10;99.90
38209;DHT22;24016;52.102;11.584;2023-04-06T05:47:46;-1.00;99.90
38209;DHT22;24016;52.102;11.584;2023-04-06T05:50:13;-0.90;99.90
38209;DHT22;24016;52.102;11.584;2023-04-06T05:52:38;-0.80;99.90
38209;DHT22;24016;52.102;11.584;2023-04-06T05:55:06;-0.70;99.90
38209;DHT22;24016;52.102;11.584;2023-04-06T05:57:32;-0.50;99.90
38209;DHT22;24016;52.102;11.584;2023-04-06T05:59:57;-0.40;99.90
38209;DHT22;24016;52.102;11.584;2023-04-06T06:02:23;-0.10;99.90
38209;DHT22;24016;52.102;11.584;2023-04-06T06:04:49;0.10;99.90
38209;DHT22;24016;52.102;11.584;2023-04-06T06:07:14;0.40;99.90
38209;DHT22;24016;52.102;11.584;2023-04-06T06:09:40;0.50;99.90
38209;DHT22;24016;52.102;11.584;2023-04-06T06:12:06;0.70;99.90
38209;DHT22;24016;52.102;11.584;2023-04-06T06:14:31;0.70;99.90
38209;DHT22;24016;52.102;11.584;2023-04-06T06:16:57;0.80;99.90
38209;DHT22;24016;52.102;11.584;2023-04-06T06:19:22;0.80;99.90
38209;DHT22;24016;52.102;11.584;2023-04-06T06:21:48;0.90;99.90
38209;DHT22;24016;52.102;11.584;2023-04-06T06:24:13;1.00;99.90
38209;DHT22;24016;52.102;11.584;2023-04-06T06:26:39;1.20;99.90
38209;DHT22;24016;52.102;11.584;2023-04-06T06:29:05;1.40;99.90
38209;DHT22;24016;52.102;11.584;2023-04-06T06:31:31;1.50;99.90
38209;DHT22;24016;52.102;11.584;2023-04-06T06:33:57;1.60;99.90
38209;DHT22;24016;52.102;11.584;2023-04-06T06:36:22;1.70;99.90
38209;DHT22;24016;52.102;11.584;2023-04-06T06:38:48;1.80;99.90
38209;DHT22;24016;52.102;11.584;2023-04-06T06:41:13;1.80;99.90
38209;DHT22;24016;52.102;11.584;2023-04-06T06:43:39;1.90;99.90
38209;DHT22;24016;52.102;11.584;2023-04-06T06:46:05;2.00;99.90
38209;DHT22;24016;52.102;11.584;2023-04-06T06:48:30;2.20;99.90
38209;DHT22;24016;52.102;11.584;2023-04-06T06:50:56;2.50;99.90
38209;DHT22;24016;52.102;11.584;2023-04-06T06:53:23;2.60;99.90
38209;DHT22;24016;52.102;11.584;2023-04-06T06:55:48;2.60;99.90
38209;DHT22;24016;52.102;11.584;2023-04-06T06:58:14;2.70;99.90
38209;DHT22;24016;52.102;11.584;2023-04-06T07:00:40;2.80;99.90
38209;DHT22;24016;52.102;11.584;2023-04-06T07:03:05;2.70;99.90
38209;DHT22;24016;52.102;11.584;2023-04-06T07:05:31;2.90;99.90
38209;DHT22;24016;52.102;11.584;2023-04-06T07:07:56;3.00;99.90
38209;DHT22;24016;52.102;11.584;2023-04-06T07:10:22;3.20;99.90
38209;DHT22;24016;52.102;11.584;2023-04-06T07:12:48;3.40;99.90
38209;DHT22;24016;52.102;11.584;2023-04-06T07:15:13;3.50;99.90
38209;DHT22;24016;52.102;11.584;2023-04-06T07:17:39;3.60;99.90
38209;DHT22;24016;52.102;11.584;2023-04-06T07:20:06;3.70;99.90
38209;DHT22;24016;52.102;11.584;2023-04-06T07:22:32;3.70;99.90
38209;DHT22;24016;52.102;11.584;2023-04-06T07:24:57;3.70;99.90
38209;DHT22;24016;52.102;11.584;2023-04-06T07:27:23;3.80;99.90
38209;DHT22;24016;52.102;11.584;2023-04-06T07:29:48;3.90;99.90
38209;DHT22;24016;52.102;11.584;2023-04-06T07:32:14;4.10;99.90
38209;DHT22;24016;52.102;11.584;2023-04-06T07:34:40;4.30;99.90
38209;DHT22;24016;52.102;11.584;2023-04-06T07:37:05;4.40;99.90
38209;DHT22;24016;52.102;11.584;2023-04-06T07:39:31;4.50;99.90
38209;DHT22;24016;52.102;11.584;2023-04-06T07:41:56;4.50;99.90
38209;DHT22;24016;52.102;11.584;2023-04-06T07:44:22;4.70;99.90
38209;DHT22;24016;52.102;11.584;2023-04-06T07:46:47;4.90;99.90
38209;DHT22;24016;52.102;11.584;2023-04-06T07:49:13;5.20;99.90
38209;DHT22;24016;52.102;11.584;2023-04-06T07:51:39;5.30;99.90
38209;DHT22;24016;52.102;11.584;2023-04-06T07:54:05;5.50;99.90
38209;DHT22;24016;52.102;11.584;2023-04-06T07:56:31;5.30;99.90
38209;DHT22;24016;52.102;11.584;2023-04-06T07:58:56;5.60;99.90
38209;DHT22;24016;52.102;11.584;2023-04-06T08:01:23;5.50;99.90
38209;DHT22;24016;52.102;11.584;2023-04-06T08:03:49;5.70;99.90
38209;DHT22;24016;52.102;11.584;2023-04-06T08:06:15;6.00;99.90
38209;DHT22;24016;52.102;11.584;2023-04-06T08:08:41;6.40;99.90
38209;DHT22;24016;52.102;11.584;2023-04-06T08:11:07;6.80;99.90
38209;DHT22;24016;52.102;11.584;2023-04-06T08:13:33;7.40;99.90
38209;DHT22;24016;52.102;11.584;2023-04-06T08:15:59;7.90;99.90
38209;DHT22;24016;52.102;11.584;2023-04-06T08:18:25;8.50;99.90
38209;DHT22;24016;52.102;11.584;2023-04-06T08:20:51;9.30;99.90
38209;DHT22;24016;52.102;11.584;2023-04-06T08:23:16;10.00;99.90
38209;DHT22;24016;52.102;11.584;2023-04-06T08:25:42;10.40;99.90
38209;DHT22;24016;52.102;11.584;2023-04-06T08:28:08;11.10;99.90
38209;DHT22;24016;52.102;11.584;2023-04-06T08:30:34;11.70;99.90
38209;DHT22;24016;52.102;11.584;2023-04-06T08:33:00;12.00;99.90
38209;DHT22;24016;52.102;11.584;2023-04-06T08:35:27;12.40;99.90
38209;DHT22;24016;52.102;11.584;2023-04-06T08:37:52;12.20;99.90
38209;DHT22;24016;52.102;11.584;2023-04-06T08:40:18;12.50;99.90
38209;DHT22;24016;52.102;11.584;2023-04-06T08:42:50;12.30;99.90
38209;DHT22;24016;52.102;11.584;2023-04-06T08:45:18;12.50;99.90
38209;DHT22;24016;52.102;11.584;2023-04-06T08:47:50;12.60;99.90
38209;DHT22;24016;52.102;11.584;2023-04-06T08:50:16;13.00;99.90
38209;DHT22;24016;52.102;11.584;2023-04-06T08:52:46;13.00;99.90
38209;DHT22;24016;52.102;11.584;2023-04-06T08:55:12;13.30;99.90
38209;DHT22;24016;52.102;11.584;2023-04-06T08:57:38;12.70;99.90
38209;DHT22;24016;52.102;11.584;2023-04-06T09:00:05;13.10;99.90
38209;DHT22;24016;52.102;11.584;2023-04-06T09:02:33;13.30;99.90
38209;DHT22;24016;52.102;11.584;2023-04-06T09:05:02;13.30;99.90
38209;DHT22;24016;52.102;11.584;2023-04-06T09:07:31;12.60;99.90
38209;DHT22;24016;52.102;11.584;2023-04-06T09:09:56;13.10;99.90
38209;DHT22;24016;52.102;11.584;2023-04-06T09:12:28;12.50;99.90
38209;DHT22;24016;52.102;11.584;2023-04-06T09:14:56;12.50;99.90
38209;DHT22;24016;52.102;11.584;2023-04-06T09:17:23;12.70;99.90
38209;DHT22;24016;52.102;11.584;2023-04-06T09:19:50;13.50;99.90
38209;DHT22;24016;52.102;11.584;2023-04-06T09:22:16;13.90;99.90
38209;DHT22;24016;52.102;11.584;2023-04-06T09:24:47;12.70;99.80
38209;DHT22;24016;52.102;11.584;2023-04-06T09:27:14;13.00;99.90
38209;DHT22;24016;52.102;11.584;2023-04-06T09:29:40;13.10;99.90
38209;DHT22;24016;52.102;11.584;2023-04-06T09:32:07;13.70;99.90
38209;DHT22;24016;52.102;11.584;2023-04-06T09:34:37;14.10;99.90
38209;DHT22;24016;52.102;11.584;2023-04-06T09:37:32;14.20;99.90
38209;DHT22;24016;52.102;11.584;2023-04-06T09:40:07;14.60;99.90
38209;DHT22;24016;52.102;11.584;2023-04-06T09:42:34;15.00;98.50
38209;DHT22;24016;52.102;11.584;2023-04-06T09:45:00;15.00;98.20
38209;DHT22;24016;52.102;11.584;2023-04-06T09:47:26;14.60;98.10
38209;DHT22;24016;52.102;11.584;2023-04-06T09:49:56;13.50;99.20
38209;DHT22;24016;52.102;11.584;2023-04-06T09:52:26;13.30;99.90
38209;DHT22;24016;52.102;11.584;2023-04-06T09:54:52;13.60;98.70
38209;DHT22;24016;52.102;11.584;2023-04-06T09:57:26;12.90;98.50
38209;DHT22;24016;52.102;11.584;2023-04-06T10:00:04;13.70;99.90
38209;DHT22;24016;52.102;11.584;2023-04-06T10:02:49;14.40;97.80
38209;DHT22;24016;52.102;11.584;2023-04-06T10:07:47;14.30;98.10
38209;DHT22;24016;52.102;11.584;2023-04-06T10:10:16;15.20;96.30
38209;DHT22;24016;52.102;11.584;2023-04-06T10:12:42;15.50;97.20
38209;DHT22;24016;52.102;11.584;2023-04-06T10:15:09;16.00;97.00
38209;DHT22;24016;52.102;11.584;2023-04-06T10:17:34;16.70;94.60
38209;DHT22;24016;52.102;11.584;2023-04-06T10:20:06;16.90;93.70
38209;DHT22;24016;52.102;11.584;2023-04-06T10:22:49;17.00;92.20
38209;DHT22;24016;52.102;11.584;2023-04-06T10:25:29;17.00;93.10
38209;DHT22;24016;52.102;11.584;2023-04-06T10:28:08;16.40;92.80
38209;DHT22;24016;52.102;11.584;2023-04-06T10:30:37;16.50;91.30
38209;DHT22;24016;52.102;11.584;2023-04-06T10:33:14;16.60;90.20
38209;DHT22;24016;52.102;11.584;2023-04-06T10:35:40;16.90;90.60
38209;DHT22;24016;52.102;11.584;2023-04-06T10:38:05;16.80;91.10
38209;DHT22;24016;52.102;11.584;2023-04-06T10:40:31;17.10;90.70
38209;DHT22;24016;52.102;11.584;2023-04-06T10:43:10;17.10;90.80
38209;DHT22;24016;52.102;11.584;2023-04-06T10:45:37;17.10;88.70
38209;DHT22;24016;52.102;11.584;2023-04-06T10:48:18;16.90;90.10
38209;DHT22;24016;52.102;11.584;2023-04-06T10:50:46;17.60;89.40
38209;DHT22;24016;52.102;11.584;2023-04-06T10:53:26;17.00;87.80
38209;DHT22;24016;52.102;11.584;2023-04-06T10:55:56;16.80;87.60
38209;DHT22;24016;52.102;11.584;2023-04-06T10:58:26;17.20;89.70
38209;DHT22;24016;52.102;11.584;2023-04-06T11:00:53;18.00;90.00
38209;DHT22;24016;52.102;11.584;2023-04-06T11:03:19;18.10;87.20
38209;DHT22;24016;52.102;11.584;2023-04-06T11:05:46;18.10;85.70
38209;DHT22;24016;52.102;11.584;2023-04-06T11:08:33;18.30;87.10
38209;DHT22;24016;52.102;11.584;2023-04-06T11:11:09;17.70;86.90
38209;DHT22;24016;52.102;11.584;2023-04-06T11:16:20;18.00;83.50
38209;DHT22;24016;52.102;11.584;2023-04-06T11:19:02;19.00;84.70
38209;DHT22;24016;52.102;11.584;2023-04-06T11:21:39;19.30;80.00
38209;DHT22;24016;52.102;11.584;2023-04-06T11:24:12;19.30;80.30
38209;DHT22;24016;52.102;11.584;2023-04-06T11:26:48;18.40;82.90
38209;DHT22;24016;52.102;11.584;2023-04-06T11:29:18;18.30;82.30
38209;DHT22;24016;52.102;11.584;2023-04-06T11:31:49;19.00;82.80
38209;DHT22;24016;52.102;11.584;2023-04-06T11:34:20;19.50;79.40
38209;DHT22;24016;52.102;11.584;2023-04-06T11:36:48;19.60;78.80
38209;DHT22;24016;52.102;11.584;2023-04-06T11:39:19;19.40;78.20
38209;DHT22;24016;52.102;11.584;2023-04-06T11:41:49;17.50;78.90
38209;DHT22;24016;52.102;11.584;2023-04-06T11:44:15;17.10;82.60
38209;DHT22;24016;52.102;11.584;2023-04-06T11:46:40;17.00;82.50
38209;DHT22;24016;52.102;11.584;2023-04-06T11:49:06;17.60;80.10
38209;DHT22;24016;52.102;11.584;2023-04-06T11:51:35;18.80;81.50
38209;DHT22;24016;52.102;11.584;2023-04-06T11:54:02;19.60;79.00
38209;DHT22;24016;52.102;11.584;2023-04-06T11:56:29;19.50;78.00
38209;DHT22;24016;52.102;11.584;2023-04-06T11:58:56;19.50;79.00
38209;DHT22;24016;52.102;11.584;2023-04-06T12:01:22;19.50;79.00
38209;DHT22;24016;52.102;11.584;2023-04-06T12:03:48;19.10;77.80
38209;DHT22;24016;52.102;11.584;2023-04-06T12:06:14;18.20;80.00
38209;DHT22;24016;52.102;11.584;2023-04-06T12:08:40;16.70;79.10
38209;DHT22;24016;52.102;11.584;2023-04-06T12:11:06;16.30;81.70
38209;DHT22;24016;52.102;11.584;2023-04-06T12:13:31;17.40;81.40
38209;DHT22;24016;52.102;11.584;2023-04-06T12:15:57;18.40;80.30
38209;DHT22;24016;52.102;11.584;2023-04-06T12:18:22;19.10;78.70
38209;DHT22;24016;52.102;11.584;2023-04-06T12:20:48;18.70;79.70
38209;DHT22;24016;52.102;11.584;2023-04-06T12:23:13;18.90;78.00
38209;DHT22;24016;52.102;11.584;2023-04-06T12:25:40;19.30;77.40
38209;DHT22;24016;52.102;11.584;2023-04-06T12:28:06;19.80;77.40
38209;DHT22;24016;52.102;11.584;2023-04-06T12:30:32;19.70;78.00
38209;DHT22;24016;52.102;11.584;2023-04-06T12:32:57;20.20;75.60
38209;DHT22;24016;52.102;11.584;2023-04-06T12:35:23;21.00;76.00
38209;DHT22;24016;52.102;11.584;2023-04-06T12:37:49;21.30;75.80
38209;DHT22;24016;52.102;11.584;2023-04-06T12:40:15;21.10;73.10
38209;DHT22;24016;52.102;11.584;2023-04-06T12:42:40;21.20;72.10
38209;DHT22;24016;52.102;11.584;2023-04-06T12:45:10;21.30;74.40
38209;DHT22;24016;52.102;11.584;2023-04-06T12:47:35;21.40;70.60
38209;DHT22;24016;52.102;11.584;2023-04-06T12:50:02;20.90;74.00
38209;DHT22;24016;52.102;11.584;2023-04-06T12:52:27;20.30;71.90
38209;DHT22;24016;52.102;11.584;2023-04-06T12:54:55;18.70;75.30
38209;DHT22;24016;52.102;11.584;2023-04-06T12:57:21;18.80;73.40
38209;DHT22;24016;52.102;11.584;2023-04-06T12:59:47;19.00;76.20
38209;DHT22;24016;52.102;11.584;2023-04-06T13:02:12;18.80;74.70
38209;DHT22;24016;52.102;11.584;2023-04-06T13:04:38;19.10;74.20
38209;DHT22;24016;52.102;11.584;2023-04-06T13:07:04;19.50;73.00
38209;DHT22;24016;52.102;11.584;2023-04-06T13:09:30;20.10;71.80
38209;DHT22;24016;52.102;11.584;2023-04-06T13:11:55;20.30;70.70
38209;DHT22;24016;52.102;11.584;2023-04-06T13:14:21;18.90;72.40
38209;DHT22;24016;52.102;11.584;2023-04-06T13:16:47;19.00;73.90
38209;DHT22;24016;52.102;11.584;2023-04-06T13:19:13;19.20;71.70
38209;DHT22;24016;52.102;11.584;2023-04-06T13:21:39;19.30;71.70
38209;DHT22;24016;52.102;11.584;2023-04-06T13:24:04;19.40;72.70
38209;DHT22;24016;52.102;11.584;2023-04-06T13:26:30;17.90;72.40
38209;DHT22;24016;52.102;11.584;2023-04-06T13:28:56;17.60;74.50
38209;DHT22;24016;52.102;11.584;2023-04-06T13:31:22;18.20;72.50
38209;DHT22;24016;52.102;11.584;2023-04-06T13:33:48;16.70;71.50
38209;DHT22;24016;52.102;11.584;2023-04-06T13:36:13;15.90;75.30
38209;DHT22;24016;52.102;11.584;2023-04-06T13:38:39;16.60;76.20
38209;DHT22;24016;52.102;11.584;2023-04-06T13:41:05;16.60;73.20
38209;DHT22;24016;52.102;11.584;2023-04-06T13:43:30;15.90;76.50
38209;DHT22;24016;52.102;11.584;2023-04-06T13:45:57;15.30;78.10
38209;DHT22;24016;52.102;11.584;2023-04-06T13:48:25;14.60;78.40
38209;DHT22;24016;52.102;11.584;2023-04-06T13:50:51;14.20;79.40
38209;DHT22;24016;52.102;11.584;2023-04-06T13:53:17;13.90;78.30
38209;DHT22;24016;52.102;11.584;2023-04-06T13:55:43;13.50;79.50
38209;DHT22;24016;52.102;11.584;2023-04-06T13:58:09;13.30;79.70
38209;DHT22;24016;52.102;11.584;2023-04-06T14:00:35;13.30;79.50
38209;DHT22;24016;52.102;11.584;2023-04-06T14:03:01;13.20;80.00
38209;DHT22;24016;52.102;11.584;2023-04-06T14:05:31;13.10;79.90
38209;DHT22;24016;52.102;11.584;2023-04-06T14:07:57;13.00;80.90
38209;DHT22;24016;52.102;11.584;2023-04-06T14:10:23;13.00;79.40
38209;DHT22;24016;52.102;11.584;2023-04-06T14:12:51;12.80;79.30
38209;DHT22;24016;52.102;11.584;2023-04-06T14:15:18;12.60;82.10
38209;DHT22;24016;52.102;11.584;2023-04-06T14:17:44;12.70;83.00
38209;DHT22;24016;52.102;11.584;2023-04-06T14:20:10;12.80;79.20
38209;DHT22;24016;52.102;11.584;2023-04-06T14:22:40;12.80;79.40
38209;DHT22;24016;52.102;11.584;2023-04-06T14:25:07;12.50;80.60
38209;DHT22;24016;52.102;11.584;2023-04-06T14:27:32;12.60;81.30
38209;DHT22;24016;52.102;11.584;2023-04-06T14:29:58;12.50;82.10
38209;DHT22;24016;52.102;11.584;2023-04-06T14:32:23;12.00;80.40
38209;DHT22;24016;52.102;11.584;2023-04-06T14:34:50;12.00;81.40
38209;DHT22;24016;52.102;11.584;2023-04-06T14:37:15;11.90;80.60
38209;DHT22;24016;52.102;11.584;2023-04-06T14:39:42;11.80;83.30
38209;DHT22;24016;52.102;11.584;2023-04-06T14:42:08;11.90;84.50
38209;DHT22;24016;52.102;11.584;2023-04-06T14:44:34;11.90;80.00
38209;DHT22;24016;52.102;11.584;2023-04-06T14:47:02;11.80;83.20
38209;DHT22;24016;52.102;11.584;2023-04-06T14:49:29;11.80;82.30
38209;DHT22;24016;52.102;11.584;2023-04-06T14:51:55;11.80;82.00
38209;DHT22;24016;52.102;11.584;2023-04-06T14:54:20;11.70;83.90
38209;DHT22;24016;52.102;11.584;2023-04-06T14:56:46;11.60;82.90
38209;DHT22;24016;52.102;11.584;2023-04-06T14:59:11;11.70;82.90
38209;DHT22;24016;52.102;11.584;2023-04-06T15:01:37;11.50;84.50
38209;DHT22;24016;52.102;11.584;2023-04-06T15:04:03;11.40;82.80
38209;DHT22;24016;52.102;11.584;2023-04-06T15:06:29;11.40;85.60
38209;DHT22;24016;52.102;11.584;2023-04-06T15:08:55;11.50;87.20
38209;DHT22;24016;52.102;11.584;2023-04-06T15:11:21;11.60;83.90
38209;DHT22;24016;52.102;11.584;2023-04-06T15:13:46;11.60;84.20
38209;DHT22;24016;52.102;11.584;2023-04-06T15:16:12;11.50;83.30
38209;DHT22;24016;52.102;11.584;2023-04-06T15:18:39;11.40;84.50